Time;durP1;ratioP1;P1;durP2;ratioP2;P2;SDS_P1;SDS_P2;PMS_P1;PMS_P2;Temp;Humidity;BMP_temperature;BMP_pressure;BME280_temperature;BME280_humidity;BME280_pressure;Samples;Min_cycle;Max_cycle;Signal;HPM_P1;HPM_P2
2024/01/09 00:02:02;;;;;;;17.10;12.40;;;-4.40;56.30;;;;;;5091050;28;20721;-59
2024/01/09 00:04:29;;;;;;;18.93;13.03;;;-4.30;56.90;;;;;;5091416;28;20212;-60
2024/01/09 00:06:55;;;;;;;14.80;12.37;;;-4.40;57.20;;;;;;5086566;28;20659;-59
2024/01/09 00:09:22;;;;;;;17.10;13.47;;;-4.30;56.30;;;;;;5087555;28;20200;-60
2024/01/09 00:11:48;;;;;;;17.70;13.97;;;-4.30;55.60;;;;;;5084403;28;20204;-60
2024/01/09 00:14:16;;;;;;;18.43;14.07;;;-4.30;55.60;;;;;;5088460;28;20663;-60
2024/01/09 00:16:43;;;;;;;16.77;12.70;;;-4.30;55.60;;;;;;5090696;28;20220;-59
2024/01/09 00:19:09;;;;;;;18.00;13.83;;;-4.40;55.60;;;;;;5091449;28;20261;-60
2024/01/09 00:21:36;;;;;;;18.30;13.43;;;-4.20;55.30;;;;;;5091417;28;20641;-60
2024/01/09 00:24:02;;;;;;;20.20;15.00;;;-4.50;55.50;;;;;;5091711;28;20204;-60
2024/01/09 00:26:29;;;;;;;16.30;13.00;;;-4.40;54.80;;;;;;5090252;28;20221;-60
2024/01/09 00:28:55;;;;;;;20.33;13.77;;;-4.40;56.80;;;;;;5090692;28;20234;-60
2024/01/09 00:31:22;;;;;;;16.97;14.13;;;-4.70;58.50;;;;;;5090782;28;20228;-60
2024/01/09 00:33:50;;;;;;;18.53;14.30;;;-4.50;54.90;;;;;;5084695;28;20209;-59
2024/01/09 00:36:16;;;;;;;17.37;12.73;;;-4.50;54.10;;;;;;5088911;28;20233;-58
2024/01/09 00:38:43;;;;;;;18.10;13.90;;;-4.80;54.30;;;;;;5095359;28;20208;-57
2024/01/09 00:41:09;;;;;;;17.67;13.87;;;-4.70;54.90;;;;;;5095064;28;20216;-59
2024/01/09 00:43:36;;;;;;;18.60;13.90;;;-4.70;53.90;;;;;;5094657;28;20285;-60
2024/01/09 00:46:02;;;;;;;16.70;13.43;;;-4.80;54.20;;;;;;5094320;28;20757;-60
2024/01/09 00:48:29;;;;;;;19.83;15.37;;;-4.50;53.70;;;;;;5093220;28;20204;-59
2024/01/09 00:50:55;;;;;;;19.47;13.77;;;-4.80;54.90;;;;;;5087872;28;20265;-57
2024/01/09 00:53:22;;;;;;;21.20;14.73;;;-4.60;53.10;;;;;;5090941;28;20254;-60
2024/01/09 00:55:48;;;;;;;17.07;13.20;;;-4.60;53.50;;;;;;5092350;28;20228;-58
2024/01/09 00:58:15;;;;;;;17.57;14.30;;;-4.70;53.90;;;;;;5094261;28;20241;-60
2024/01/09 01:00:41;;;;;;;19.70;14.27;;;-4.90;53.10;;;;;;5094299;28;20204;-60
2024/01/09 01:03:08;;;;;;;20.33;14.53;;;-4.80;54.20;;;;;;5094767;28;20204;-60
2024/01/09 01:05:34;;;;;;;18.57;14.03;;;-4.60;53.90;;;;;;5090039;28;20229;-60
2024/01/09 01:08:01;;;;;;;20.00;15.63;;;-4.80;53.80;;;;;;5094013;28;20227;-60
2024/01/09 01:10:27;;;;;;;17.20;14.20;;;-4.90;54.40;;;;;;5094592;28;20213;-60
2024/01/09 01:12:54;;;;;;;16.07;14.00;;;-4.70;53.50;;;;;;5090576;28;20209;-59
2024/01/09 01:15:21;;;;;;;18.80;14.53;;;-4.90;52.80;;;;;;5086972;28;20240;-58
2024/01/09 01:17:47;;;;;;;18.80;14.23;;;-4.80;52.90;;;;;;5094889;28;20208;-58
2024/01/09 01:20:14;;;;;;;18.37;12.63;;;-4.70;53.80;;;;;;5094110;28;20667;-59
2024/01/09 01:22:41;;;;;;;17.03;13.33;;;-4.80;52.80;;;;;;5094013;28;20311;-59
2024/01/09 01:25:08;;;;;;;17.43;12.83;;;-4.60;52.70;;;;;;5093849;28;20269;-59
2024/01/09 01:27:34;;;;;;;22.03;14.60;;;-4.50;52.20;;;;;;5094081;28;20820;-60
2024/01/09 01:30:01;;;;;;;17.33;13.47;;;-4.60;53.10;;;;;;5088866;28;20205;-60
2024/01/09 01:32:27;;;;;;;19.87;14.13;;;-4.50;52.40;;;;;;5093616;28;20250;-58
2024/01/09 01:34:54;;;;;;;20.57;14.43;;;-4.40;51.80;;;;;;5093555;28;20209;-60
2024/01/09 01:37:20;;;;;;;21.27;14.00;;;-4.50;52.80;;;;;;5093796;28;20720;-60
2024/01/09 01:39:47;;;;;;;15.93;13.07;;;-4.50;52.10;;;;;;5093818;28;20201;-57
2024/01/09 01:42:14;;;;;;;22.57;13.83;;;-4.50;51.20;;;;;;5093741;28;20235;-60
2024/01/09 01:44:40;;;;;;;18.07;14.40;;;-4.30;51.80;;;;;;5092858;28;20212;-60
2024/01/09 01:47:07;;;;;;;18.97;13.27;;;-4.70;52.30;;;;;;5091477;28;20197;-59
2024/01/09 01:49:33;;;;;;;19.07;14.00;;;-4.50;52.60;;;;;;5092040;28;20824;-58
2024/01/09 01:52:00;;;;;;;19.97;14.83;;;-4.40;52.90;;;;;;5093538;28;20273;-59
2024/01/09 01:54:26;;;;;;;20.03;14.67;;;-4.80;52.90;;;;;;5090225;28;20659;-60
2024/01/09 01:56:53;;;;;;;18.67;14.00;;;-4.70;53.20;;;;;;5092498;28;20228;-58
2024/01/09 01:59:19;;;;;;;19.83;14.03;;;-4.70;53.40;;;;;;5092965;28;20274;-59
2024/01/09 02:01:46;;;;;;;22.83;14.70;;;-4.50;53.40;;;;;;5086186;28;20217;-59
2024/01/09 02:04:12;;;;;;;17.43;13.07;;;-4.70;53.80;;;;;;5092995;28;20587;-60
2024/01/09 02:06:39;;;;;;;20.53;15.40;;;-4.70;54.20;;;;;;5092536;28;20254;-58
2024/01/09 02:09:05;;;;;;;20.73;14.63;;;-4.70;54.20;;;;;;5093021;28;20239;-59
2024/01/09 02:11:33;;;;;;;20.77;14.77;;;-4.50;53.30;;;;;;5092086;28;20196;-59
2024/01/09 02:13:59;;;;;;;21.30;15.20;;;-4.60;54.30;;;;;;5089672;28;20204;-56
2024/01/09 02:16:26;;;;;;;19.87;15.07;;;-4.50;54.00;;;;;;5092064;28;20312;-58
2024/01/09 02:18:52;;;;;;;24.10;15.43;;;-4.30;55.70;;;;;;5095109;28;20204;-56
2024/01/09 02:21:19;;;;;;;23.47;15.63;;;-4.70;55.50;;;;;;5095698;28;20244;-59
2024/01/09 02:23:48;;;;;;;20.53;15.10;;;-4.70;54.30;;;;;;5085262;28;20630;-60
2024/01/09 02:26:14;;;;;;;19.70;15.07;;;-4.60;54.00;;;;;;5092814;28;20221;-59
2024/01/09 02:28:41;;;;;;;21.93;15.03;;;-4.70;54.60;;;;;;5090834;28;20671;-60
2024/01/09 02:31:07;;;;;;;21.33;14.70;;;-4.60;54.20;;;;;;5085122;28;20266;-59
2024/01/09 02:33:34;;;;;;;20.93;14.30;;;-4.70;54.70;;;;;;5091056;28;20646;-60
2024/01/09 02:36:00;;;;;;;21.23;15.63;;;-4.70;54.30;;;;;;5092388;28;20277;-60
2024/01/09 02:38:27;;;;;;;22.27;16.93;;;-4.60;55.20;;;;;;5090721;28;20201;-60
2024/01/09 02:40:53;;;;;;;19.73;14.73;;;-4.80;54.00;;;;;;5088483;28;20613;-59
2024/01/09 02:43:20;;;;;;;19.00;15.27;;;-4.60;54.50;;;;;;5090172;28;20867;-60
2024/01/09 02:45:46;;;;;;;21.37;16.27;;;-4.70;54.40;;;;;;5090510;28;20224;-60
2024/01/09 02:48:13;;;;;;;22.73;16.63;;;-4.60;55.00;;;;;;5088866;28;20201;-60
2024/01/09 02:50:39;;;;;;;21.50;15.60;;;-4.50;54.30;;;;;;5091302;28;20316;-59
2024/01/09 02:53:06;;;;;;;22.60;15.73;;;-4.50;55.20;;;;;;5091621;28;20642;-59
2024/01/09 02:55:32;;;;;;;21.50;15.30;;;-4.30;54.70;;;;;;5087893;28;20281;-58
2024/01/09 02:57:59;;;;;;;22.47;16.20;;;-4.80;55.20;;;;;;5091358;28;20208;-60
2024/01/09 03:00:25;;;;;;;21.83;15.73;;;-4.50;54.50;;;;;;5091387;28;20209;-60
2024/01/09 03:02:52;;;;;;;22.10;15.80;;;-4.30;53.70;;;;;;5091717;28;20224;-60
2024/01/09 03:05:18;;;;;;;25.70;16.53;;;-4.30;54.10;;;;;;5090449;28;20220;-60
2024/01/09 03:07:45;;;;;;;22.80;16.60;;;-4.60;53.40;;;;;;5085183;28;20208;-60
2024/01/09 03:10:12;;;;;;;23.33;16.13;;;-4.60;53.60;;;;;;5088954;28;20205;-59
2024/01/09 03:12:38;;;;;;;23.40;15.87;;;-4.50;54.40;;;;;;5088578;28;20200;-60
2024/01/09 03:15:05;;;;;;;22.17;17.17;;;-4.90;54.70;;;;;;5085138;28;20229;-60
2024/01/09 03:17:31;;;;;;;23.63;16.97;;;-5.00;55.50;;;;;;5091125;28;20631;-59
2024/01/09 03:19:58;;;;;;;24.30;17.57;;;-4.80;56.00;;;;;;5091613;28;20208;-60
2024/01/09 03:22:24;;;;;;;21.67;16.23;;;-4.70;55.30;;;;;;5090376;28;20725;-59
2024/01/09 03:24:51;;;;;;;23.33;16.30;;;-4.80;55.00;;;;;;5090591;28;20209;-57
2024/01/09 03:27:17;;;;;;;22.23;17.40;;;-4.60;54.70;;;;;;5091895;28;20200;-58
2024/01/09 03:29:44;;;;;;;21.60;15.07;;;-5.10;55.00;;;;;;5091651;28;20694;-58
2024/01/09 03:32:10;;;;;;;20.97;15.97;;;-5.10;55.00;;;;;;5082597;28;20205;-59
2024/01/09 03:34:37;;;;;;;23.47;16.13;;;-4.80;55.20;;;;;;5090337;28;20670;-59
2024/01/09 03:37:03;;;;;;;23.63;16.67;;;-4.70;55.30;;;;;;5091616;28;20710;-58
2024/01/09 03:39:30;;;;;;;22.37;16.20;;;-5.10;55.70;;;;;;5091619;28;20686;-58
2024/01/09 03:41:56;;;;;;;21.43;17.03;;;-5.00;55.70;;;;;;5090829;28;20715;-59
2024/01/09 03:44:23;;;;;;;24.67;17.13;;;-4.90;55.70;;;;;;5091667;28;20205;-58
2024/01/09 03:46:49;;;;;;;23.70;16.37;;;-4.80;55.00;;;;;;5091353;28;20212;-58
2024/01/09 03:49:16;;;;;;;23.87;16.50;;;-4.70;54.70;;;;;;5088343;28;20284;-60
2024/01/09 03:51:42;;;;;;;25.60;15.57;;;-4.60;54.30;;;;;;5088985;28;20212;-60
2024/01/09 03:54:09;;;;;;;22.93;15.77;;;-4.60;54.10;;;;;;5091646;28;20257;-59
2024/01/09 03:56:35;;;;;;;20.87;14.93;;;-4.90;54.70;;;;;;5089133;28;20718;-59
2024/01/09 03:59:02;;;;;;;25.60;16.77;;;-4.60;54.40;;;;;;5090898;28;20257;-58
2024/01/09 04:01:28;;;;;;;23.17;16.17;;;-4.80;54.90;;;;;;5090969;28;20201;-59
2024/01/09 04:03:56;;;;;;;21.97;15.73;;;-4.80;55.20;;;;;;5091421;28;20207;-58
2024/01/09 04:06:23;;;;;;;21.87;15.60;;;-4.90;55.50;;;;;;5090934;28;20265;-60
2024/01/09 04:08:49;;;;;;;22.80;16.10;;;-5.10;58.40;;;;;;5091644;28;20257;-58
2024/01/09 04:11:16;;;;;;;21.60;16.13;;;-5.00;55.90;;;;;;5091476;28;20208;-59
2024/01/09 04:13:43;;;;;;;22.60;16.60;;;-4.80;55.70;;;;;;5092165;28;20200;-60
2024/01/09 04:16:09;;;;;;;20.00;14.40;;;-5.00;55.40;;;;;;5092062;28;20667;-60
2024/01/09 04:18:36;;;;;;;19.03;15.00;;;-5.00;55.10;;;;;;5094960;28;20628;-59
2024/01/09 04:21:02;;;;;;;23.47;17.13;;;-4.70;55.30;;;;;;5095425;28;20629;-58
2024/01/09 04:23:29;;;;;;;20.40;15.90;;;-5.00;55.00;;;;;;5094419;28;20220;-57
2024/01/09 04:25:55;;;;;;;24.70;16.57;;;-4.90;56.30;;;;;;5093183;28;20228;-59
2024/01/09 04:28:22;;;;;;;21.87;15.83;;;-4.80;55.20;;;;;;5094886;28;20254;-60
2024/01/09 04:30:48;;;;;;;22.50;15.83;;;-5.00;55.70;;;;;;5094749;28;20676;-60
2024/01/09 04:33:15;;;;;;;22.93;17.03;;;-5.10;56.00;;;;;;5082786;28;20204;-60
2024/01/09 04:35:41;;;;;;;22.60;16.27;;;-4.90;56.00;;;;;;5089303;28;20297;-60
2024/01/09 04:38:08;;;;;;;22.03;15.80;;;-4.90;55.20;;;;;;5094376;28;20262;-60
2024/01/09 04:40:34;;;;;;;20.53;15.63;;;-4.80;55.00;;;;;;5094903;28;20208;-60
2024/01/09 04:43:01;;;;;;;20.27;16.00;;;-4.90;55.20;;;;;;5094299;28;20261;-60
2024/01/09 04:45:27;;;;;;;21.63;15.30;;;-4.90;56.10;;;;;;5094230;28;20270;-58
2024/01/09 04:47:54;;;;;;;21.50;16.07;;;-4.80;55.20;;;;;;5094248;28;20253;-58
2024/01/09 04:50:20;;;;;;;22.53;15.80;;;-4.90;55.60;;;;;;5092079;28;20204;-60
2024/01/09 04:52:47;;;;;;;22.37;16.30;;;-4.90;55.20;;;;;;5091574;28;20258;-60
2024/01/09 04:55:13;;;;;;;21.40;16.50;;;-5.10;55.70;;;;;;5093334;28;20760;-60
2024/01/09 04:57:40;;;;;;;21.60;15.93;;;-5.00;56.00;;;;;;5092239;28;20216;-58
2024/01/09 05:00:06;;;;;;;22.30;15.40;;;-4.80;55.70;;;;;;5088236;28;20216;-60
2024/01/09 05:02:33;;;;;;;22.43;15.80;;;-5.00;55.60;;;;;;5090109;28;20232;-58
2024/01/09 05:04:59;;;;;;;21.33;15.83;;;-4.80;55.20;;;;;;5093189;28;20228;-59
2024/01/09 05:07:26;;;;;;;20.93;15.57;;;-4.90;55.70;;;;;;5093336;28;20245;-55
2024/01/09 05:09:52;;;;;;;22.70;16.07;;;-4.90;55.70;;;;;;5094255;28;20212;-56
2024/01/09 05:12:20;;;;;;;23.67;15.83;;;-5.00;55.70;;;;;;5090883;28;20204;-58
2024/01/09 05:14:47;;;;;;;22.97;15.97;;;-5.10;55.80;;;;;;5084106;28;20906;-56
2024/01/09 05:17:13;;;;;;;23.47;16.40;;;-5.30;56.90;;;;;;5092858;28;20196;-58
2024/01/09 05:19:40;;;;;;;20.10;16.03;;;-5.20;57.70;;;;;;5094633;28;20305;-58
2024/01/09 05:22:06;;;;;;;19.77;15.83;;;-5.10;57.00;;;;;;5094065;28;20357;-57
2024/01/09 05:24:33;;;;;;;24.83;16.83;;;-5.60;56.20;;;;;;5093488;28;20261;-60
2024/01/09 05:26:59;;;;;;;23.63;16.43;;;-5.40;56.90;;;;;;5094075;28;20647;-60
2024/01/09 05:29:26;;;;;;;20.90;17.23;;;-5.30;57.00;;;;;;5093680;28;20254;-59
2024/01/09 05:31:52;;;;;;;21.03;15.53;;;-5.30;56.60;;;;;;5094337;28;20208;-58
2024/01/09 05:34:19;;;;;;;21.33;15.80;;;-5.40;57.20;;;;;;5088536;28;20257;-58
2024/01/09 05:36:45;;;;;;;21.47;16.07;;;-5.30;56.70;;;;;;5094255;28;20232;-57
2024/01/09 05:39:12;;;;;;;20.80;15.37;;;-5.20;57.50;;;;;;5097264;28;20200;-57
2024/01/09 05:41:39;;;;;;;25.27;17.23;;;-5.20;56.50;;;;;;5097515;28;20208;-59
2024/01/09 05:44:06;;;;;;;23.33;16.50;;;-5.20;58.10;;;;;;5096405;28;20596;-59
2024/01/09 05:46:32;;;;;;;23.17;15.60;;;-5.10;58.20;;;;;;5093452;28;20278;-58
2024/01/09 05:48:59;;;;;;;23.50;15.73;;;-5.00;57.80;;;;;;5093054;28;20208;-59
2024/01/09 05:51:25;;;;;;;21.73;16.70;;;-5.20;56.60;;;;;;5091104;28;20212;-60
2024/01/09 05:53:52;;;;;;;19.80;14.83;;;-5.10;58.60;;;;;;5092896;28;20253;-59
2024/01/09 05:56:18;;;;;;;20.60;14.90;;;-5.20;57.90;;;;;;5093250;28;20225;-58
2024/01/09 05:58:45;;;;;;;20.63;16.10;;;-5.40;57.90;;;;;;5091141;28;20255;-60
2024/01/09 06:01:11;;;;;;;23.73;17.50;;;-5.80;58.10;;;;;;5092808;28;20205;-59
2024/01/09 06:03:38;;;;;;;19.07;15.50;;;-5.70;58.60;;;;;;5093324;28;20217;-59
2024/01/09 06:06:04;;;;;;;24.37;16.87;;;-5.70;59.50;;;;;;5093306;28;20228;-59
2024/01/09 06:08:31;;;;;;;23.63;16.97;;;-5.50;59.70;;;;;;5092993;28;20246;-59
2024/01/09 06:10:57;;;;;;;26.87;18.13;;;-5.70;58.60;;;;;;5092981;28;20203;-60
2024/01/09 06:13:24;;;;;;;24.20;16.27;;;-5.50;60.50;;;;;;5090906;28;20675;-60
2024/01/09 06:15:50;;;;;;;22.37;15.77;;;-5.40;58.90;;;;;;5090331;28;20216;-59
2024/01/09 06:18:17;;;;;;;40.43;18.00;;;-5.50;56.90;;;;;;5082979;28;20584;-60
2024/01/09 06:20:43;;;;;;;22.50;15.80;;;-5.60;57.40;;;;;;5092743;28;20204;-59
2024/01/09 06:23:10;;;;;;;24.13;16.17;;;-5.60;59.30;;;;;;5092906;28;20281;-60
2024/01/09 06:25:36;;;;;;;23.93;17.57;;;-5.30;59.10;;;;;;5092816;28;20228;-59
2024/01/09 06:28:03;;;;;;;20.17;15.30;;;-5.20;58.30;;;;;;5092600;28;20257;-60
2024/01/09 06:30:30;;;;;;;21.47;15.17;;;-5.60;57.10;;;;;;5092703;28;20208;-60
2024/01/09 06:32:56;;;;;;;25.30;17.37;;;-5.50;58.80;;;;;;5090972;28;20204;-59
2024/01/09 06:35:23;;;;;;;21.83;15.20;;;-5.50;58.90;;;;;;5084140;28;20228;-59
2024/01/09 06:37:49;;;;;;;24.60;17.30;;;-5.60;59.60;;;;;;5092196;28;20572;-60
2024/01/09 06:40:19;;;;;;;24.97;16.47;;;-5.60;58.80;;;;;;5092723;28;20250;-60
2024/01/09 06:42:46;;;;;;;24.30;16.33;;;-5.70;59.50;;;;;;5084432;28;20220;-60
2024/01/09 06:45:14;;;;;;;24.83;16.30;;;-5.60;58.70;;;;;;5092473;28;20232;-59
2024/01/09 06:47:40;;;;;;;23.80;15.97;;;-5.40;59.20;;;;;;5090634;28;20260;-60
2024/01/09 06:50:06;;;;;;;23.70;15.73;;;-5.50;58.60;;;;;;5092335;28;20254;-60
2024/01/09 06:52:33;;;;;;;23.67;16.07;;;-5.40;59.90;;;;;;5088967;28;20212;-60
2024/01/09 06:55:00;;;;;;;25.83;16.17;;;-5.30;57.40;;;;;;5092178;28;20228;-59
2024/01/09 06:57:26;;;;;;;22.53;16.47;;;-5.50;58.90;;;;;;5092428;28;20208;-60
2024/01/09 06:59:53;;;;;;;22.43;17.10;;;-5.50;58.90;;;;;;5088466;28;20224;-60
2024/01/09 07:02:20;;;;;;;25.23;17.13;;;-5.50;59.40;;;;;;5089291;28;20223;-60
2024/01/09 07:04:47;;;;;;;19.67;15.30;;;-5.40;58.70;;;;;;5083843;28;20247;-59
2024/01/09 07:07:13;;;;;;;21.47;16.37;;;-5.30;58.40;;;;;;5092233;28;20953;-59
2024/01/09 07:09:40;;;;;;;23.03;15.33;;;-5.30;57.70;;;;;;5090942;28;21379;-60
2024/01/09 07:12:08;;;;;;;21.63;15.93;;;-5.50;58.90;;;;;;5090536;28;20208;-59
2024/01/09 07:14:34;;;;;;;23.83;16.30;;;-5.40;57.60;;;;;;5091715;28;20212;-58
2024/01/09 07:17:01;;;;;;;22.33;16.80;;;-5.70;58.70;;;;;;5087735;28;20233;-59
2024/01/09 07:19:27;;;;;;;22.83;16.17;;;-5.70;58.20;;;;;;5083463;28;20208;-59
2024/01/09 07:21:54;;;;;;;21.07;16.23;;;-5.50;57.80;;;;;;5091898;28;20209;-60
2024/01/09 07:24:20;;;;;;;25.50;17.70;;;-5.50;57.40;;;;;;5091783;28;20277;-59
2024/01/09 07:26:47;;;;;;;25.23;16.10;;;-5.60;58.60;;;;;;5091992;28;20286;-60
2024/01/09 07:29:16;;;;;;;27.53;17.40;;;-5.60;56.40;;;;;;5092224;28;20277;-60
2024/01/09 07:31:43;;;;;;;23.70;16.07;;;-5.80;56.00;;;;;;5091852;28;20200;-60
2024/01/09 07:34:09;;;;;;;24.80;17.10;;;-5.50;58.50;;;;;;5090265;28;20208;-57
2024/01/09 07:36:36;;;;;;;23.27;16.47;;;-5.50;57.50;;;;;;5082791;28;20760;-60
2024/01/09 07:39:02;;;;;;;20.87;15.43;;;-5.50;55.90;;;;;;5091411;28;20217;-59
2024/01/09 07:41:29;;;;;;;24.40;16.17;;;-5.70;55.40;;;;;;5091344;28;20204;-59
2024/01/09 07:43:55;;;;;;;21.03;16.27;;;-6.10;56.50;;;;;;5091125;28;20220;-59
2024/01/09 07:46:22;;;;;;;21.73;16.53;;;-5.80;57.80;;;;;;5091319;28;20644;-60
2024/01/09 07:48:48;;;;;;;21.10;15.27;;;-5.90;56.80;;;;;;5094008;28;20208;-60
2024/01/09 07:51:15;;;;;;;24.13;15.73;;;-5.70;56.40;;;;;;5096042;28;20216;-60
2024/01/09 07:53:41;;;;;;;22.50;16.13;;;-5.90;56.20;;;;;;5095653;28;20667;-60
2024/01/09 07:56:08;;;;;;;24.47;16.50;;;-5.90;55.60;;;;;;5095600;28;20232;-59
2024/01/09 07:58:34;;;;;;;20.27;14.87;;;-5.70;55.40;;;;;;5091331;28;20208;-61
2024/01/09 08:01:01;;;;;;;26.07;17.27;;;-5.90;56.00;;;;;;5092276;28;20205;-60
2024/01/09 08:03:27;;;;;;;22.87;16.43;;;-5.90;55.50;;;;;;5094305;28;20220;-58
2024/01/09 08:05:55;;;;;;;22.67;16.40;;;-5.70;55.40;;;;;;5090394;28;20220;-60
2024/01/09 08:08:22;;;;;;;24.50;17.43;;;-5.50;54.60;;;;;;5088333;28;20201;-60
2024/01/09 08:10:48;;;;;;;21.17;15.53;;;-5.70;54.80;;;;;;5090815;28;20635;-60
2024/01/09 08:13:15;;;;;;;24.37;17.07;;;-5.80;52.30;;;;;;5091083;28;20200;-61
2024/01/09 08:15:41;;;;;;;24.03;17.20;;;-5.70;53.60;;;;;;5087869;28;20224;-60
2024/01/09 08:18:08;;;;;;;21.97;15.70;;;-5.70;53.00;;;;;;5087979;28;20200;-60
2024/01/09 08:20:35;;;;;;;23.17;15.67;;;-5.80;52.30;;;;;;5095164;28;20245;-60
2024/01/09 08:23:02;;;;;;;23.10;16.53;;;-5.80;52.50;;;;;;5093092;28;20224;-60
2024/01/09 08:25:29;;;;;;;22.03;16.17;;;-5.90;54.10;;;;;;5093931;28;20640;-60
2024/01/09 08:27:55;;;;;;;23.67;17.50;;;-5.80;52.80;;;;;;5090504;28;20200;-60
2024/01/09 08:30:22;;;;;;;23.63;16.27;;;-5.60;54.60;;;;;;5093906;28;20212;-60
2024/01/09 08:32:48;;;;;;;21.33;15.90;;;-5.90;51.90;;;;;;5093453;28;20740;-60
2024/01/09 08:35:15;;;;;;;24.40;15.93;;;-5.80;53.20;;;;;;5087856;28;20758;-60
2024/01/09 08:37:41;;;;;;;21.47;15.40;;;-5.80;52.00;;;;;;5073621;28;20213;-60
2024/01/09 08:40:08;;;;;;;21.50;16.67;;;-5.80;51.80;;;;;;5084951;28;20205;-59
2024/01/09 08:42:34;;;;;;;23.03;15.73;;;-5.80;53.00;;;;;;5092596;28;20228;-61
2024/01/09 08:45:01;;;;;;;22.33;16.67;;;-5.60;53.20;;;;;;5090416;28;20368;-61
2024/01/09 08:47:27;;;;;;;21.80;16.53;;;-5.90;51.40;;;;;;5089084;28;20254;-61
2024/01/09 08:49:54;;;;;;;20.30;14.90;;;-5.90;52.10;;;;;;5093400;28;20234;-60
2024/01/09 08:52:24;;;;;;;21.07;15.97;;;-5.80;51.90;;;;;;5085700;28;20293;-60
2024/01/09 08:54:51;;;;;;;21.27;15.23;;;-5.70;52.70;;;;;;5090918;28;20200;-59
2024/01/09 08:57:17;;;;;;;23.93;16.23;;;-6.00;51.00;;;;;;5090015;28;20207;-60
2024/01/09 08:59:44;;;;;;;22.57;15.80;;;-6.10;53.00;;;;;;5091062;28;20209;-60
2024/01/09 09:02:10;;;;;;;20.40;15.83;;;-5.70;51.50;;;;;;5088001;28;20601;-60
2024/01/09 09:04:37;;;;;;;21.80;15.67;;;-6.00;51.90;;;;;;5092313;28;20250;-60
2024/01/09 09:07:03;;;;;;;21.30;15.23;;;-5.60;51.20;;;;;;5086117;28;20224;-61
2024/01/09 09:09:30;;;;;;;22.77;15.93;;;-5.50;50.40;;;;;;5084176;28;20228;-59
2024/01/09 09:11:58;;;;;;;22.27;16.27;;;-5.80;51.40;;;;;;5091086;28;20261;-61
2024/01/09 09:14:25;;;;;;;22.80;15.70;;;-5.80;51.70;;;;;;5092053;28;20701;-60
2024/01/09 09:16:51;;;;;;;29.43;18.77;;;-5.70;51.30;;;;;;5093518;28;20224;-60
2024/01/09 09:19:21;;;;;;;24.10;17.43;;;-5.70;52.40;;;;;;5093851;28;20250;-60
2024/01/09 09:21:47;;;;;;;24.50;17.13;;;-5.40;51.20;;;;;;5089560;28;20230;-58
2024/01/09 09:24:14;;;;;;;22.40;15.80;;;-5.50;50.00;;;;;;5091738;28;20779;-57
2024/01/09 09:26:40;;;;;;;20.73;15.80;;;-5.40;52.50;;;;;;5090574;28;20236;-59
2024/01/09 09:29:07;;;;;;;19.63;14.13;;;-5.80;51.20;;;;;;5088464;28;20234;-58
2024/01/09 09:31:42;;;;;;;22.07;16.90;;;-6.20;51.20;;;;;;5088428;28;20651;-57
2024/01/09 09:34:09;;;;;;;22.37;16.20;;;-5.70;52.80;;;;;;5089072;28;20219;-58
2024/01/09 09:36:35;;;;;;;20.27;15.17;;;-5.90;52.40;;;;;;5090274;28;20225;-59
2024/01/09 09:39:02;;;;;;;22.27;15.90;;;-5.70;51.70;;;;;;5087172;28;20204;-59
2024/01/09 09:41:31;;;;;;;24.67;15.03;;;-5.50;52.10;;;;;;5087756;28;20209;-56
2024/01/09 09:43:57;;;;;;;21.00;15.50;;;-5.60;53.10;;;;;;5088004;28;20584;-57
2024/01/09 09:46:24;;;;;;;26.83;15.80;;;-5.40;52.10;;;;;;5091667;28;20254;-58
2024/01/09 09:48:52;;;;;;;27.33;15.07;;;-5.20;52.80;;;;;;5091210;28;20242;-58
2024/01/09 09:51:19;;;;;;;23.20;15.83;;;-5.10;52.20;;;;;;5091200;28;20212;-59
2024/01/09 09:53:45;;;;;;;21.57;15.67;;;-5.40;50.90;;;;;;5085650;28;20257;-59
2024/01/09 09:56:12;;;;;;;26.40;16.43;;;-5.70;51.30;;;;;;5089740;28;20224;-60
2024/01/09 09:58:38;;;;;;;24.87;16.27;;;-5.30;50.40;;;;;;5092515;28;20204;-57
2024/01/09 10:01:05;;;;;;;22.20;16.10;;;-5.90;51.70;;;;;;5087914;28;20835;-58
2024/01/09 10:03:32;;;;;;;22.97;15.57;;;-5.30;53.20;;;;;;5084760;28;20236;-57
2024/01/09 10:05:59;;;;;;;22.67;16.33;;;-5.50;52.00;;;;;;5091943;28;20220;-60
2024/01/09 10:08:25;;;;;;;22.53;15.10;;;-5.60;51.80;;;;;;5090523;28;20204;-60
2024/01/09 10:10:52;;;;;;;24.17;16.00;;;-5.40;50.80;;;;;;5087678;28;20261;-58
2024/01/09 10:13:18;;;;;;;22.97;14.90;;;-5.40;50.40;;;;;;5084763;28;20259;-59
2024/01/09 10:15:45;;;;;;;28.53;15.73;;;-5.30;50.60;;;;;;5091392;28;20278;-61
2024/01/09 10:18:11;;;;;;;25.77;16.17;;;-5.20;50.90;;;;;;5086150;28;20203;-59
2024/01/09 10:20:38;;;;;;;22.80;15.90;;;-5.20;50.30;;;;;;5087780;28;20265;-58
2024/01/09 10:23:04;;;;;;;25.00;16.53;;;-5.50;51.80;;;;;;5088987;28;21026;-56
2024/01/09 10:25:31;;;;;;;21.83;16.53;;;-5.50;51.70;;;;;;5073938;28;20224;-59
2024/01/09 10:27:57;;;;;;;22.57;15.13;;;-5.30;51.50;;;;;;5085555;28;20281;-56
2024/01/09 10:30:24;;;;;;;23.30;15.33;;;-5.10;50.20;;;;;;5086681;28;20209;-59
2024/01/09 10:32:50;;;;;;;20.57;15.50;;;-4.70;49.80;;;;;;5094585;28;20196;-59
2024/01/09 10:35:17;;;;;;;22.20;15.07;;;-4.90;49.20;;;;;;5091594;28;20788;-59
2024/01/09 10:37:44;;;;;;;22.60;15.10;;;-4.70;48.70;;;;;;5090408;28;20647;-59
2024/01/09 10:40:11;;;;;;;23.70;16.70;;;-4.80;49.30;;;;;;5091433;28;20240;-59
2024/01/09 10:42:37;;;;;;;25.23;15.00;;;-5.00;49.40;;;;;;5089306;28;20253;-59
2024/01/09 10:45:04;;;;;;;25.97;15.87;;;-4.90;48.70;;;;;;5083818;28;20242;-60
2024/01/09 10:47:31;;;;;;;21.47;15.37;;;-4.90;50.20;;;;;;5091623;28;20197;-60
2024/01/09 10:49:57;;;;;;;24.93;16.27;;;-5.30;49.20;;;;;;5086735;28;20217;-57
2024/01/09 10:52:24;;;;;;;21.73;14.37;;;-4.90;50.00;;;;;;5087295;28;20222;-58
2024/01/09 10:54:52;;;;;;;22.33;15.30;;;-4.70;49.30;;;;;;5089839;28;20200;-59
2024/01/09 10:57:18;;;;;;;26.43;15.37;;;-4.50;48.90;;;;;;5091152;28;20208;-59
2024/01/09 10:59:45;;;;;;;19.27;14.57;;;-4.40;49.40;;;;;;5091691;28;20297;-58
2024/01/09 11:02:11;;;;;;;23.27;15.93;;;-4.60;49.00;;;;;;5091589;28;20212;-59
2024/01/09 11:04:39;;;;;;;21.70;14.73;;;-4.70;49.00;;;;;;5091571;28;20716;-59
2024/01/09 11:07:06;;;;;;;22.53;16.27;;;-4.60;50.20;;;;;;5083622;28;20201;-57
2024/01/09 11:09:32;;;;;;;22.23;15.43;;;-4.90;51.40;;;;;;5089456;28;20657;-58
2024/01/09 11:11:59;;;;;;;22.53;16.33;;;-4.70;50.90;;;;;;5091607;28;20208;-59
2024/01/09 11:14:26;;;;;;;22.90;15.57;;;-4.50;49.50;;;;;;5091867;28;20202;-59
2024/01/09 11:16:53;;;;;;;22.87;15.70;;;-4.50;50.10;;;;;;5092026;28;20281;-59
2024/01/09 11:19:19;;;;;;;22.43;15.43;;;-4.60;49.90;;;;;;5090066;28;20287;-59
2024/01/09 11:21:46;;;;;;;21.67;16.10;;;-4.50;50.30;;;;;;5090910;28;20219;-59
2024/01/09 11:24:12;;;;;;;20.93;14.13;;;-4.10;49.00;;;;;;5092455;28;20595;-59
2024/01/09 11:26:41;;;;;;;19.93;14.20;;;-3.70;46.60;;;;;;5089095;28;20262;-59
2024/01/09 11:29:08;;;;;;;20.40;14.00;;;-4.30;45.30;;;;;;5083025;28;20254;-59
2024/01/09 11:31:35;;;;;;;22.57;14.70;;;-3.50;46.80;;;;;;5086344;28;20691;-58
2024/01/09 11:34:02;;;;;;;21.33;14.50;;;-2.90;44.20;;;;;;5080021;28;20201;-57
2024/01/09 11:36:28;;;;;;;25.83;15.27;;;-3.50;42.50;;;;;;5086319;28;20737;-59
2024/01/09 11:38:55;;;;;;;21.17;13.70;;;-3.40;44.40;;;;;;5086975;28;20217;-58
2024/01/09 11:41:22;;;;;;;18.57;13.93;;;-3.20;43.10;;;;;;5087303;28;20256;-60
2024/01/09 11:43:48;;;;;;;21.47;14.73;;;-2.80;42.90;;;;;;5084469;28;20228;-58
2024/01/09 11:46:15;;;;;;;19.97;13.73;;;-2.60;43.00;;;;;;5087463;28;20302;-60
2024/01/09 11:48:43;;;;;;;18.80;14.70;;;-2.10;42.40;;;;;;5088531;28;20228;-59
2024/01/09 11:51:10;;;;;;;19.80;14.00;;;-2.20;41.30;;;;;;5087973;28;20217;-61
2024/01/09 11:53:37;;;;;;;20.77;14.60;;;-2.70;42.50;;;;;;5080757;28;20218;-59
2024/01/09 11:56:03;;;;;;;20.97;14.47;;;-3.10;42.90;;;;;;5079473;28;20324;-60
2024/01/09 11:58:30;;;;;;;23.63;15.63;;;-2.40;44.60;;;;;;5084168;28;20290;-60
2024/01/09 12:00:56;;;;;;;19.53;14.27;;;-2.20;41.90;;;;;;5081394;28;20866;-61
2024/01/09 12:03:23;;;;;;;19.80;15.67;;;-2.10;41.30;;;;;;5077312;28;20293;-59
2024/01/09 12:05:49;;;;;;;20.03;14.20;;;-2.80;42.90;;;;;;5085842;28;20231;-60
2024/01/09 12:08:16;;;;;;;19.00;13.83;;;-3.00;42.20;;;;;;5083945;28;20215;-60
2024/01/09 12:10:42;;;;;;;22.53;14.70;;;-2.40;42.30;;;;;;5085266;28;20203;-60
2024/01/09 12:13:09;;;;;;;19.47;14.00;;;-2.20;41.20;;;;;;5088365;28;20213;-58
2024/01/09 12:15:36;;;;;;;18.70;13.53;;;-2.00;41.20;;;;;;5088402;28;20292;-60
2024/01/09 12:18:02;;;;;;;19.47;14.67;;;-1.60;41.50;;;;;;5088517;28;20225;-57
2024/01/09 12:20:29;;;;;;;15.70;13.93;;;-2.50;40.90;;;;;;5089195;28;20250;-60
2024/01/09 12:22:55;;;;;;;21.83;14.83;;;-2.50;43.90;;;;;;5088499;28;20206;-60
2024/01/09 12:25:22;;;;;;;18.23;13.67;;;-2.10;43.20;;;;;;5078284;28;20283;-60